createdAt,value
2023-01-26T00:01:21.412Z,2.03
2023-01-26T00:03:49.153Z,2.07
2023-01-26T00:06:20.575Z,2.03
2023-01-26T00:08:53.502Z,2.06
2023-01-26T00:11:24.846Z,2.10
2023-01-26T00:13:51.910Z,2.09
2023-01-26T00:16:19.484Z,2.10
2023-01-26T00:18:46.808Z,2.09
2023-01-26T00:21:17.722Z,2.04
2023-01-26T00:23:45.512Z,2.04
2023-01-26T00:26:17.459Z,2.02
2023-01-26T00:28:45.033Z,1.99
2023-01-26T00:31:22.431Z,1.93
2023-01-26T00:33:49.852Z,1.88
2023-01-26T00:36:16.675Z,1.81
2023-01-26T00:38:43.546Z,1.73
2023-01-26T00:41:30.896Z,1.67
2023-01-26T00:43:58.064Z,1.61
2023-01-26T00:46:25.004Z,1.56
2023-01-26T00:48:52.096Z,1.48
2023-01-26T00:51:18.961Z,1.49
2023-01-26T00:53:45.768Z,1.49
2023-01-26T00:56:14.850Z,1.51
2023-01-26T00:58:42.388Z,1.54
2023-01-26T01:01:09.594Z,1.54
2023-01-26T01:03:36.439Z,1.52
2023-01-26T01:06:03.377Z,1.52
2023-01-26T01:08:30.128Z,1.51
2023-01-26T01:11:06.322Z,1.47
2023-01-26T01:13:33.430Z,1.48
2023-01-26T01:16:00.319Z,1.46
2023-01-26T01:18:27.191Z,1.43
2023-01-26T01:20:53.959Z,1.41
2023-01-26T01:23:20.810Z,1.39
2023-01-26T01:25:47.789Z,1.41
2023-01-26T01:28:14.729Z,1.39
2023-01-26T01:30:41.573Z,1.39
2023-01-26T01:33:08.458Z,1.39
2023-01-26T01:35:35.966Z,1.38
2023-01-26T01:38:02.874Z,1.41
2023-01-26T01:40:29.760Z,1.40
2023-01-26T01:42:56.562Z,1.42
2023-01-26T01:45:26.220Z,1.42
2023-01-26T01:48:04.141Z,1.45
2023-01-26T01:50:39.541Z,1.45
2023-01-26T01:53:13.829Z,1.49
2023-01-26T01:55:42.278Z,1.51
2023-01-26T01:58:09.775Z,1.56
2023-01-26T02:00:36.591Z,1.64
2023-01-26T02:03:15.182Z,1.63
2023-01-26T02:06:23.784Z,1.68
2023-01-26T02:08:56.418Z,1.71
2023-01-26T02:11:32.262Z,1.75
2023-01-26T02:14:01.244Z,1.79
2023-01-26T02:16:28.265Z,1.82
2023-01-26T02:18:55.084Z,1.82
2023-01-26T02:21:24.357Z,1.89
2023-01-26T02:24:03.691Z,1.87
2023-01-26T02:26:34.574Z,1.91
2023-01-26T02:29:04.193Z,1.94
2023-01-26T02:31:31.603Z,1.95
2023-01-26T02:33:58.465Z,1.98
2023-01-26T02:36:27.633Z,1.98
2023-01-26T02:39:22.516Z,1.97
2023-01-26T02:42:10.003Z,2.00
2023-01-26T02:44:39.391Z,2.01
2023-01-26T02:47:15.469Z,1.95
2023-01-26T02:49:50.546Z,2.02
2023-01-26T02:52:27.878Z,1.98
2023-01-26T02:55:14.625Z,1.97
2023-01-26T02:57:42.175Z,2.03
2023-01-26T03:00:24.491Z,2.00
2023-01-26T03:02:54.135Z,2.03
2023-01-26T03:05:21.158Z,2.00
2023-01-26T03:07:48.441Z,2.01
2023-01-26T03:10:18.556Z,2.01
2023-01-26T03:12:46.440Z,1.99
2023-01-26T03:15:31.525Z,2.00
2023-01-26T03:18:36.226Z,1.89
2023-01-26T03:21:28.061Z,1.91
2023-01-26T03:24:13.781Z,1.77
2023-01-26T03:26:59.239Z,1.85
2023-01-26T03:29:27.102Z,1.82
2023-01-26T03:31:54.452Z,1.81
2023-01-26T03:34:21.896Z,1.82
2023-01-26T03:36:49.587Z,1.82
2023-01-26T03:39:34.971Z,1.83
2023-01-26T03:42:20.803Z,1.87
2023-01-26T03:45:06.038Z,1.83
2023-01-26T03:47:53.650Z,1.79
2023-01-26T03:50:39.431Z,1.77
2023-01-26T03:53:36.186Z,1.72
2023-01-26T03:56:22.076Z,1.73
2023-01-26T03:58:54.429Z,1.68
2023-01-26T04:01:28.314Z,1.67
2023-01-26T04:04:16.542Z,1.66
2023-01-26T04:07:05.005Z,1.63
2023-01-26T04:09:36.876Z,1.66
2023-01-26T04:12:04.740Z,1.63
2023-01-26T04:14:50.815Z,1.66
2023-01-26T04:17:37.776Z,1.64
2023-01-26T04:20:25.072Z,1.65
2023-01-26T04:22:52.435Z,1.59
2023-01-26T04:25:22.018Z,1.56
2023-01-26T04:27:48.832Z,1.53
2023-01-26T04:30:17.540Z,1.48
2023-01-26T04:32:46.370Z,1.52
2023-01-26T04:35:13.738Z,1.53
2023-01-26T04:37:40.848Z,1.48
2023-01-26T04:40:09.377Z,1.51
2023-01-26T04:42:36.523Z,1.48
2023-01-26T04:45:03.993Z,1.47
2023-01-26T04:47:30.848Z,1.51
2023-01-26T04:49:58.034Z,1.48
2023-01-26T04:52:24.825Z,1.51
2023-01-26T04:54:51.618Z,1.43
2023-01-26T04:57:21.261Z,1.47
2023-01-26T04:59:48.021Z,1.48
2023-01-26T05:02:15.263Z,1.47
2023-01-26T05:04:42.116Z,1.48
2023-01-26T05:07:09.063Z,1.35
2023-01-26T05:09:35.928Z,1.42
2023-01-26T05:12:22.867Z,1.45
2023-01-26T05:14:49.629Z,1.45
2023-01-26T05:17:16.388Z,1.39
2023-01-26T05:19:43.554Z,1.43
2023-01-26T05:22:12.422Z,1.40
2023-01-26T05:24:39.615Z,1.38
2023-01-26T05:27:21.527Z,1.40
2023-01-26T05:29:50.105Z,1.41
2023-01-26T05:32:17.897Z,1.40
2023-01-26T05:34:46.098Z,1.44
2023-01-26T05:37:14.943Z,1.43
2023-01-26T05:39:42.372Z,1.42
2023-01-26T05:42:09.355Z,1.45
2023-01-26T05:44:36.177Z,1.42
2023-01-26T05:47:03.118Z,1.46
2023-01-26T05:49:29.987Z,1.42
2023-01-26T05:51:57.166Z,1.43
2023-01-26T05:54:23.981Z,1.48
2023-01-26T05:56:53.428Z,1.44
2023-01-26T05:59:20.230Z,1.41
2023-01-26T06:01:47.036Z,1.43
2023-01-26T06:04:14.073Z,1.50
2023-01-26T06:06:40.984Z,1.48
2023-01-26T06:09:07.774Z,1.49
2023-01-26T06:11:34.866Z,1.49
2023-01-26T06:14:01.669Z,1.51
2023-01-26T06:16:28.708Z,1.42
2023-01-26T06:18:55.952Z,1.47
2023-01-26T06:21:22.733Z,1.50
2023-01-26T06:23:49.537Z,1.51
2023-01-26T06:26:16.384Z,1.49
2023-01-26T06:28:43.349Z,1.50
2023-01-26T06:31:11.004Z,1.49
2023-01-26T06:33:39.008Z,1.49
2023-01-26T06:36:10.185Z,1.46
2023-01-26T06:38:37.699Z,1.55
2023-01-26T06:41:07.587Z,1.53
2023-01-26T06:43:35.988Z,1.52
2023-01-26T06:46:04.773Z,1.56
2023-01-26T06:48:34.740Z,1.59
2023-01-26T06:51:21.711Z,1.52
2023-01-26T06:53:56.759Z,1.53
2023-01-26T06:56:25.066Z,1.55
2023-01-26T06:58:52.208Z,1.57
2023-01-26T07:01:21.246Z,1.56
2023-01-26T07:03:49.615Z,1.61
2023-01-26T07:06:16.572Z,1.56
2023-01-26T07:08:43.753Z,1.56
2023-01-26T07:11:11.708Z,1.54
2023-01-26T07:13:39.387Z,1.59
2023-01-26T07:16:10.717Z,1.55
2023-01-26T07:18:38.458Z,1.59
2023-01-26T07:21:09.128Z,1.55
2023-01-26T07:23:36.182Z,1.59
2023-01-26T07:26:03.211Z,1.56
2023-01-26T07:28:30.776Z,1.55
2023-01-26T07:30:58.883Z,1.53
2023-01-26T07:33:25.925Z,1.52
2023-01-26T07:35:54.225Z,1.48
2023-01-26T07:38:21.210Z,1.45
2023-01-26T07:40:48.290Z,1.42
2023-01-26T07:43:17.899Z,1.40
2023-01-26T07:45:51.682Z,1.39
2023-01-26T07:48:20.964Z,1.38
2023-01-26T07:50:48.708Z,1.39
2023-01-26T07:53:19.586Z,1.38
2023-01-26T07:55:47.352Z,1.41
2023-01-26T07:58:14.465Z,1.36
2023-01-26T08:00:41.575Z,1.40
2023-01-26T08:03:08.430Z,1.39
2023-01-26T08:05:37.160Z,1.41
2023-01-26T08:08:04.610Z,1.42
2023-01-26T08:10:32.127Z,1.46
2023-01-26T08:13:02.473Z,1.46
2023-01-26T08:15:29.609Z,1.52
2023-01-26T08:17:56.691Z,1.54
2023-01-26T08:20:23.903Z,1.58
2023-01-26T08:22:50.741Z,1.57
2023-01-26T08:25:17.578Z,1.64
2023-01-26T08:27:44.328Z,1.60
2023-01-26T08:30:12.868Z,1.64
2023-01-26T08:32:39.976Z,1.63
2023-01-26T08:35:07.693Z,1.73
2023-01-26T08:37:34.614Z,1.74
2023-01-26T08:40:01.367Z,1.73
2023-01-26T08:42:28.320Z,1.78
2023-01-26T08:44:55.264Z,1.82
2023-01-26T08:47:22.089Z,1.88
2023-01-26T08:49:48.816Z,1.91
2023-01-26T08:52:16.828Z,1.95
2023-01-26T08:54:43.644Z,2.00
2023-01-26T08:57:10.581Z,2.01
2023-01-26T08:59:37.360Z,2.08
2023-01-26T09:02:04.248Z,2.12
2023-01-26T09:04:31.108Z,2.15
2023-01-26T09:06:57.877Z,2.18
2023-01-26T09:09:24.957Z,2.22
2023-01-26T09:11:55.985Z,2.26
2023-01-26T09:14:24.107Z,2.26
2023-01-26T09:16:51.002Z,2.34
2023-01-26T09:19:17.821Z,2.33
2023-01-26T09:21:44.779Z,2.40
2023-01-26T09:24:11.770Z,2.43
2023-01-26T09:26:38.963Z,2.45
2023-01-26T09:29:05.808Z,2.45
2023-01-26T09:31:32.715Z,2.53
2023-01-26T09:33:59.910Z,2.62
2023-01-26T09:36:26.772Z,2.54
2023-01-26T09:38:54.248Z,2.53
2023-01-26T09:41:45.128Z,2.69
2023-01-26T09:44:20.661Z,2.68
2023-01-26T09:47:01.385Z,2.76
2023-01-26T09:50:01.373Z,2.79
2023-01-26T09:52:36.892Z,2.82
2023-01-26T09:55:16.200Z,2.84
2023-01-26T09:58:05.436Z,2.93
2023-01-26T10:00:35.387Z,3.00
2023-01-26T10:03:39.935Z,3.05
2023-01-26T10:06:29.674Z,3.16
2023-01-26T10:09:01.638Z,3.21
2023-01-26T10:11:43.705Z,3.23
2023-01-26T10:14:21.942Z,3.28
2023-01-26T10:16:51.872Z,3.35
2023-01-26T10:20:10.162Z,3.40
2023-01-26T10:22:45.745Z,3.46
2023-01-26T10:25:21.977Z,3.46
2023-01-26T10:27:49.702Z,3.62
2023-01-26T10:30:18.613Z,3.63
2023-01-26T10:32:50.934Z,3.70
2023-01-26T10:35:22.426Z,3.71
2023-01-26T10:37:49.984Z,3.74
2023-01-26T10:40:17.802Z,3.83
2023-01-26T10:42:57.849Z,3.89
2023-01-26T10:45:31.471Z,3.96
2023-01-26T10:48:16.471Z,4.07
2023-01-26T10:50:44.500Z,4.12
2023-01-26T10:53:29.867Z,4.15
2023-01-26T10:56:15.022Z,4.19
2023-01-26T10:58:50.335Z,4.17
2023-01-26T11:01:18.963Z,4.22
2023-01-26T11:04:06.940Z,4.17
2023-01-26T11:06:35.562Z,4.24
2023-01-26T11:09:19.752Z,4.30
2023-01-26T11:12:05.999Z,4.34
2023-01-26T11:14:35.009Z,4.44
2023-01-26T11:17:15.391Z,4.49
2023-01-26T11:20:01.981Z,4.55
2023-01-26T11:22:36.957Z,4.59
2023-01-26T11:25:43.510Z,4.65
2023-01-26T11:28:44.204Z,4.71
2023-01-26T11:31:31.509Z,4.64
2023-01-26T11:34:23.516Z,4.61
2023-01-26T11:37:15.553Z,4.62
2023-01-26T11:39:45.140Z,4.58
2023-01-26T11:43:01.707Z,4.59
2023-01-26T11:45:38.551Z,4.57
2023-01-26T11:48:22.850Z,4.61
2023-01-26T11:51:05.661Z,4.63
2023-01-26T11:53:57.828Z,4.69
2023-01-26T11:57:00.036Z,4.73
2023-01-26T12:00:29.595Z,4.80
2023-01-26T12:03:06.441Z,4.85
2023-01-26T12:05:56.400Z,4.88
2023-01-26T12:08:42.085Z,4.92
2023-01-26T12:11:30.223Z,5.01
2023-01-26T12:14:02.917Z,5.05
2023-01-26T12:16:49.178Z,5.07
2023-01-26T12:19:40.796Z,5.16
2023-01-26T12:22:26.842Z,5.21
2023-01-26T12:25:24.675Z,5.32
2023-01-26T12:28:02.288Z,5.42
2023-01-26T12:30:37.108Z,5.62
2023-01-26T12:33:04.074Z,5.76
2023-01-26T12:36:08.631Z,5.91
2023-01-26T12:39:31.584Z,6.07
2023-01-26T12:42:04.051Z,6.16
2023-01-26T12:44:38.202Z,6.17
2023-01-26T12:47:15.427Z,6.11
2023-01-26T12:50:43.712Z,6.08
2023-01-26T12:53:31.631Z,6.09
2023-01-26T12:56:10.527Z,6.02
2023-01-26T12:58:45.500Z,6.03
2023-01-26T13:01:20.379Z,6.03
2023-01-26T13:04:05.082Z,6.02
2023-01-26T13:06:32.084Z,6.04
2023-01-26T13:09:23.773Z,6.00
2023-01-26T13:11:57.215Z,6.09
2023-01-26T13:14:25.273Z,6.11
2023-01-26T13:16:52.441Z,6.13
2023-01-26T13:19:44.854Z,6.13
2023-01-26T13:22:24.041Z,6.05
2023-01-26T13:25:14.921Z,6.09
2023-01-26T13:27:55.778Z,6.04
2023-01-26T13:30:22.760Z,6.06
2023-01-26T13:32:49.559Z,6.01
2023-01-26T13:35:23.680Z,6.00
2023-01-26T13:37:58.453Z,6.00
2023-01-26T13:40:38.358Z,5.90
2023-01-26T13:43:27.928Z,5.86
2023-01-26T13:46:22.466Z,5.86
2023-01-26T13:48:54.471Z,5.83
2023-01-26T13:51:28.549Z,5.84
2023-01-26T13:54:04.581Z,5.86
2023-01-26T13:56:35.183Z,5.83
2023-01-26T13:59:07.421Z,5.80
2023-01-26T14:01:37.185Z,5.83
2023-01-26T14:04:09.653Z,5.81
2023-01-26T14:06:38.664Z,5.92
2023-01-26T14:09:11.973Z,5.94
2023-01-26T14:11:38.973Z,5.97
2023-01-26T14:14:06.817Z,6.01
2023-01-26T14:16:36.707Z,6.03
2023-01-26T14:19:16.466Z,6.04
2023-01-26T14:22:00.297Z,6.08
2023-01-26T14:24:31.878Z,6.12
2023-01-26T14:26:59.023Z,6.05
2023-01-26T14:29:29.183Z,6.10
2023-01-26T14:32:00.448Z,6.12
2023-01-26T14:34:30.798Z,6.11
2023-01-26T14:37:15.801Z,6.12
2023-01-26T14:39:45.056Z,6.11
2023-01-26T14:42:18.029Z,6.05
2023-01-26T14:44:45.406Z,6.08
2023-01-26T14:47:30.420Z,6.00
2023-01-26T14:50:04.021Z,6.03
2023-01-26T14:52:35.835Z,6.00
2023-01-26T14:55:23.210Z,5.99
2023-01-26T14:57:52.167Z,6.03
2023-01-26T15:00:27.487Z,5.99
2023-01-26T15:02:58.149Z,6.01
2023-01-26T15:05:35.426Z,6.02
2023-01-26T15:08:19.734Z,6.08
2023-01-26T15:11:22.531Z,6.00
2023-01-26T15:13:55.412Z,6.03
2023-01-26T15:16:26.649Z,6.00
2023-01-26T15:19:03.086Z,6.02
2023-01-26T15:21:40.717Z,5.98
2023-01-26T15:24:15.140Z,5.96
2023-01-26T15:26:43.072Z,5.98
2023-01-26T15:29:36.312Z,5.99
2023-01-26T15:32:03.229Z,5.96
2023-01-26T15:34:36.427Z,5.97
2023-01-26T15:37:32.838Z,5.93
2023-01-26T15:39:59.922Z,5.92
2023-01-26T15:42:30.322Z,5.91
2023-01-26T15:44:57.691Z,5.91
2023-01-26T15:47:24.562Z,5.93
2023-01-26T15:49:51.586Z,5.94
2023-01-26T15:52:26.044Z,5.90
2023-01-26T15:54:54.333Z,5.85
2023-01-26T15:57:21.769Z,5.86
2023-01-26T15:59:48.583Z,5.83
2023-01-26T16:02:18.636Z,5.85
2023-01-26T16:04:45.941Z,5.76
2023-01-26T16:07:15.885Z,5.81
2023-01-26T16:09:43.170Z,5.80
2023-01-26T16:12:25.893Z,5.75
2023-01-26T16:14:58.134Z,5.72
2023-01-26T16:17:25.004Z,5.76
2023-01-26T16:19:51.935Z,5.75
2023-01-26T16:22:18.917Z,5.71
2023-01-26T16:24:46.955Z,5.70
2023-01-26T16:27:13.836Z,5.69
2023-01-26T16:29:40.809Z,5.71
2023-01-26T16:32:28.426Z,5.64
2023-01-26T16:34:55.259Z,5.66
2023-01-26T16:37:22.063Z,5.65
2023-01-26T16:39:48.822Z,5.62
2023-01-26T16:42:19.508Z,5.61
2023-01-26T16:44:46.663Z,5.57
2023-01-26T16:47:13.655Z,5.55
2023-01-26T16:49:40.461Z,5.59
2023-01-26T16:52:10.116Z,5.48
2023-01-26T16:54:36.966Z,5.49
2023-01-26T16:57:04.152Z,5.50
2023-01-26T16:59:30.963Z,5.49
2023-01-26T17:01:58.026Z,5.46
2023-01-26T17:04:25.074Z,5.43
2023-01-26T17:06:51.895Z,5.35
2023-01-26T17:09:18.799Z,5.36
2023-01-26T17:11:45.717Z,5.30
2023-01-26T17:14:13.256Z,5.33
2023-01-26T17:16:40.340Z,5.25
2023-01-26T17:19:09.100Z,5.22
2023-01-26T17:21:36.381Z,5.17
2023-01-26T17:24:03.506Z,5.12
2023-01-26T17:26:30.323Z,5.06
2023-01-26T17:28:57.321Z,5.07
2023-01-26T17:31:25.168Z,5.09
2023-01-26T17:33:52.436Z,5.08
2023-01-26T17:36:19.814Z,5.11
2023-01-26T17:38:48.570Z,5.07
2023-01-26T17:41:16.511Z,5.10
2023-01-26T17:43:43.360Z,5.08
2023-01-26T17:46:14.228Z,5.05
2023-01-26T17:48:44.859Z,5.04
2023-01-26T17:51:18.729Z,5.03
2023-01-26T17:53:48.201Z,5.05
2023-01-26T17:56:19.359Z,4.99
2023-01-26T17:58:55.794Z,4.95
2023-01-26T18:01:25.277Z,4.96
2023-01-26T18:03:53.827Z,4.96
2023-01-26T18:06:21.187Z,4.99
2023-01-26T18:08:48.667Z,4.99
2023-01-26T18:11:16.737Z,5.04
2023-01-26T18:13:44.698Z,5.02
2023-01-26T18:16:17.896Z,4.97
2023-01-26T18:18:45.812Z,5.02
2023-01-26T18:21:22.873Z,4.99
2023-01-26T18:23:53.794Z,4.98
2023-01-26T18:26:23.688Z,5.02
2023-01-26T18:28:50.883Z,5.06
2023-01-26T18:31:30.558Z,4.98
2023-01-26T18:33:59.476Z,5.00
2023-01-26T18:36:27.923Z,5.02
2023-01-26T18:39:06.141Z,4.97
2023-01-26T18:41:34.124Z,5.01
2023-01-26T18:44:03.893Z,5.00
2023-01-26T18:46:33.399Z,4.98
2023-01-26T18:49:03.763Z,5.01
2023-01-26T18:51:34.729Z,4.98
2023-01-26T18:54:04.357Z,5.00
2023-01-26T18:56:31.649Z,4.98
2023-01-26T18:58:58.967Z,4.95
2023-01-26T19:01:26.561Z,4.98
2023-01-26T19:03:57.811Z,4.95
2023-01-26T19:06:26.288Z,4.95
2023-01-26T19:09:01.036Z,4.94
2023-01-26T19:11:32.268Z,4.95
2023-01-26T19:14:00.660Z,4.88
2023-01-26T19:16:29.769Z,4.91
2023-01-26T19:18:56.787Z,4.85
2023-01-26T19:21:25.193Z,4.87
2023-01-26T19:23:54.514Z,4.79
2023-01-26T19:26:29.671Z,4.82
2023-01-26T19:28:57.033Z,4.78
2023-01-26T19:31:26.604Z,4.70
2023-01-26T19:33:56.837Z,4.64
2023-01-26T19:36:25.099Z,4.56
2023-01-26T19:38:52.389Z,4.47
2023-01-26T19:41:20.805Z,4.37
2023-01-26T19:43:48.833Z,4.32
2023-01-26T19:46:16.639Z,4.27
2023-01-26T19:48:44.739Z,4.24
2023-01-26T19:51:15.531Z,4.24
2023-01-26T19:53:46.169Z,4.23
2023-01-26T19:56:26.124Z,4.24
2023-01-26T19:58:56.480Z,4.27
2023-01-26T20:01:25.405Z,4.28
2023-01-26T20:03:59.296Z,4.29
2023-01-26T20:06:29.525Z,4.32
2023-01-26T20:08:57.071Z,4.31
2023-01-26T20:11:25.359Z,4.29
2023-01-26T20:14:11.698Z,4.27
2023-01-26T20:16:38.865Z,4.33
2023-01-26T20:19:06.424Z,4.34
2023-01-26T20:21:34.213Z,4.37
2023-01-26T20:24:05.778Z,4.37
2023-01-26T20:26:34.470Z,4.36
2023-01-26T20:29:01.469Z,4.37
2023-01-26T20:31:28.363Z,4.34
2023-01-26T20:33:55.872Z,4.36
2023-01-26T20:36:27.494Z,4.40
2023-01-26T20:38:54.921Z,4.35
2023-01-26T20:41:27.396Z,4.36
2023-01-26T20:44:00.366Z,4.38
2023-01-26T20:46:37.742Z,4.39
2023-01-26T20:49:08.889Z,4.41
2023-01-26T20:51:38.388Z,4.39
2023-01-26T20:54:07.411Z,4.36
2023-01-26T20:56:35.872Z,4.37
2023-01-26T20:59:04.637Z,4.36
2023-01-26T21:01:34.006Z,4.39
2023-01-26T21:04:02.367Z,4.35
2023-01-26T21:06:30.400Z,4.33
2023-01-26T21:09:00.129Z,4.33
2023-01-26T21:11:30.863Z,4.35
2023-01-26T21:14:01.873Z,4.33
2023-01-26T21:16:30.872Z,4.35
2023-01-26T21:18:57.792Z,4.33
2023-01-26T21:21:25.606Z,4.33
2023-01-26T21:23:52.609Z,4.32
2023-01-26T21:26:25.543Z,4.33
2023-01-26T21:28:55.209Z,4.33
2023-01-26T21:31:25.592Z,4.34
2023-01-26T21:33:53.244Z,4.34
2023-01-26T21:36:27.154Z,4.28
2023-01-26T21:38:57.095Z,4.33
2023-01-26T21:41:49.448Z,4.30
2023-01-26T21:44:20.229Z,4.33
2023-01-26T21:46:50.870Z,4.30
2023-01-26T21:49:18.278Z,4.26
2023-01-26T21:52:04.209Z,4.23
2023-01-26T21:54:31.920Z,4.26
2023-01-26T21:56:59.415Z,4.23
2023-01-26T21:59:26.491Z,4.24
2023-01-26T22:01:56.205Z,4.25
2023-01-26T22:04:30.162Z,4.28
2023-01-26T22:06:57.402Z,4.22
2023-01-26T22:09:24.964Z,4.23
2023-01-26T22:11:52.224Z,4.24
2023-01-26T22:14:26.163Z,4.26
2023-01-26T22:16:53.332Z,4.23
2023-01-26T22:19:20.370Z,4.20
2023-01-26T22:21:50.439Z,4.21
2023-01-26T22:24:18.182Z,4.21
2023-01-26T22:26:45.179Z,4.22
2023-01-26T22:29:13.320Z,4.25
2023-01-26T22:31:40.343Z,4.20
2023-01-26T22:34:07.275Z,4.19
2023-01-26T22:36:34.109Z,4.15
2023-01-26T22:39:01.153Z,4.21
2023-01-26T22:41:30.254Z,4.16
2023-01-26T22:43:59.774Z,4.22
2023-01-26T22:46:29.240Z,4.19
2023-01-26T22:48:58.575Z,4.14
2023-01-26T22:51:29.022Z,4.10
2023-01-26T22:53:58.359Z,4.08
2023-01-26T22:56:26.508Z,4.04
2023-01-26T22:58:59.391Z,3.97
2023-01-26T23:01:32.519Z,3.97
2023-01-26T23:04:01.460Z,3.99
2023-01-26T23:06:29.326Z,3.93
2023-01-26T23:08:58.211Z,3.94
2023-01-26T23:11:28.736Z,3.96
2023-01-26T23:13:58.496Z,3.99
2023-01-26T23:16:26.750Z,3.94
2023-01-26T23:18:56.412Z,3.97
2023-01-26T23:21:24.592Z,3.99
2023-01-26T23:23:51.567Z,3.96
2023-01-26T23:26:18.700Z,3.96
2023-01-26T23:28:45.781Z,3.98
2023-01-26T23:31:15.733Z,3.97
2023-01-26T23:33:43.514Z,3.98
2023-01-26T23:36:12.474Z,4.02
2023-01-26T23:38:39.491Z,3.98
2023-01-26T23:41:08.611Z,4.03
2023-01-26T23:43:36.189Z,4.02
2023-01-26T23:46:05.021Z,3.98
2023-01-26T23:48:32.064Z,4.00
2023-01-26T23:51:18.945Z,4.03
2023-01-26T23:53:45.768Z,3.99
2023-01-26T23:56:17.580Z,4.03
2023-01-26T23:58:45.910Z,4.00
